Time;durP1;ratioP1;P1;durP2;ratioP2;P2;SDS_P1;SDS_P2;PMS_P1;PMS_P2;Temp;Humidity;BMP_temperature;BMP_pressure;BME280_temperature;BME280_humidity;BME280_pressure;Samples;Min_cycle;Max_cycle;Signal;HPM_P1;HPM_P2
2021/07/24 00:01:00;;;;;;;9.63;8.60;;;;;;;21.42;63.43;94891.69;4901928;29;20827;-83
2021/07/24 00:03:28;;;;;;;8.73;7.93;;;;;;;21.44;62.85;94894.16;4900441;29;20461;-83
2021/07/24 00:05:55;;;;;;;9.87;8.87;;;;;;;21.43;62.91;94896.00;4901429;29;20851;-83
2021/07/24 00:08:23;;;;;;;9.70;8.80;;;;;;;21.46;63.31;94895.59;4900947;29;20445;-83
2021/07/24 00:10:51;;;;;;;9.33;8.63;;;;;;;21.51;62.55;94895.00;4900638;29;20460;-83
2021/07/24 00:13:18;;;;;;;8.50;7.80;;;;;;;21.53;62.26;94891.13;4852493;29;20458;-84
2021/07/24 00:15:45;;;;;;;9.33;8.50;;;;;;;21.57;63.03;94888.88;4901213;29;20957;-83
2021/07/24 00:18:12;;;;;;;9.43;8.20;;;;;;;21.51;61.94;94890.47;4900473;29;20446;-83
2021/07/24 00:20:40;;;;;;;11.17;10.17;;;;;;;21.51;62.24;94889.66;4900648;29;20442;-83
2021/07/24 00:23:09;;;;;;;9.00;8.10;;;;;;;21.53;62.06;94887.63;4900122;29;20943;-83
2021/07/24 00:25:37;;;;;;;9.27;8.27;;;;;;;21.52;62.29;94896.66;4899679;29;20498;-82
2021/07/24 00:28:05;;;;;;;9.13;8.33;;;;;;;21.46;62.61;94890.25;4867669;29;20483;-84
2021/07/24 00:30:32;;;;;;;9.30;8.33;;;;;;;21.43;62.53;94887.97;4900834;29;20445;-84
2021/07/24 00:32:59;;;;;;;9.10;8.20;;;;;;;21.43;62.76;94884.50;4852219;29;20460;-83
2021/07/24 00:35:25;;;;;;;8.97;8.07;;;;;;;21.46;62.93;94894.78;4900683;29;20445;-83
2021/07/24 00:37:53;;;;;;;8.77;7.97;;;;;;;21.49;62.78;94892.53;4900155;29;20930;-83
2021/07/24 00:40:22;;;;;;;8.23;7.53;;;;;;;21.51;63.22;94889.66;4900007;29;20957;-83
2021/07/24 00:42:52;;;;;;;9.07;8.20;;;;;;;21.46;63.13;94892.09;4867479;29;20533;-83
2021/07/24 00:45:21;;;;;;;9.17;8.27;;;;;;;21.40;63.07;94898.22;4899715;29;20517;-83
2021/07/24 00:47:51;;;;;;;9.47;8.57;;;;;;;21.32;62.84;94891.19;4900196;29;20452;-83
2021/07/24 00:50:18;;;;;;;11.83;9.13;;;;;;;21.24;63.09;94888.69;4900158;29;20444;-83
2021/07/24 00:52:46;;;;;;;9.23;8.33;;;;;;;21.21;63.51;94891.72;4900110;29;20536;-83
2021/07/24 00:55:14;;;;;;;10.10;8.27;;;;;;;21.18;63.62;94884.09;4900243;29;20453;-83
2021/07/24 00:57:42;;;;;;;9.40;8.40;;;;;;;21.14;63.87;94886.34;4899593;29;20454;-83
2021/07/24 01:00:12;;;;;;;8.63;7.73;;;;;;;21.16;63.85;94875.47;4899732;29;20444;-83
2021/07/24 01:02:39;;;;;;;8.73;7.93;;;;;;;21.16;63.44;94878.94;4821674;29;20536;-83
2021/07/24 01:05:08;;;;;;;10.03;8.93;;;;;;;21.15;63.32;94884.50;4899900;29;20896;-83
2021/07/24 01:07:37;;;;;;;8.97;8.17;;;;;;;21.11;63.61;94884.06;4899793;29;20544;-83
2021/07/24 01:10:05;;;;;;;7.87;7.17;;;;;;;21.08;63.80;94889.75;4899804;29;20548;-83
2021/07/24 01:12:33;;;;;;;9.73;8.83;;;;;;;21.07;63.33;94881.94;4899453;29;20817;-83
2021/07/24 01:15:02;;;;;;;9.63;8.73;;;;;;;21.12;63.35;94885.72;4899240;29;20454;-83
2021/07/24 01:17:30;;;;;;;10.97;8.47;;;;;;;21.05;63.40;94879.47;4898727;29;20453;-83
2021/07/24 01:19:57;;;;;;;9.63;8.63;;;;;;;20.94;63.25;94886.19;4898421;29;20456;-83
2021/07/24 01:22:28;;;;;;;10.33;8.10;;;;;;;20.94;63.78;94880.03;4899119;29;20487;-83
2021/07/24 01:24:55;;;;;;;9.87;8.87;;;;;;;20.90;63.04;94886.75;4899183;29;21354;-83
2021/07/24 01:27:22;;;;;;;9.73;8.83;;;;;;;20.89;63.47;94891.28;4899191;29;20475;-83
2021/07/24 01:29:49;;;;;;;7.53;6.93;;;;;;;20.91;63.22;94888.41;4899216;29;21000;-83
2021/07/24 01:32:16;;;;;;;8.60;7.70;;;;;;;20.87;63.16;94885.31;4899087;29;20463;-84
2021/07/24 01:34:46;;;;;;;9.40;8.50;;;;;;;20.83;63.62;94880.56;4899143;29;20437;-84
2021/07/24 01:37:13;;;;;;;9.73;7.43;;;;;;;20.79;63.39;94876.59;4899222;29;20452;-83
2021/07/24 01:39:41;;;;;;;9.57;7.33;;;;;;;20.76;63.79;94880.47;4898874;29;20467;-83
2021/07/24 01:42:08;;;;;;;10.13;7.60;;;;;;;20.66;63.62;94872.81;4898788;29;20463;-83
2021/07/24 01:44:35;;;;;;;9.33;8.33;;;;;;;20.71;63.64;94872.25;4898794;29;21011;-83
2021/07/24 01:47:02;;;;;;;9.97;7.70;;;;;;;20.76;63.63;94875.16;4899154;29;20437;-83
2021/07/24 01:58:58;;;;;;;8.90;7.90;;;;;;;20.69;63.55;94874.28;4898038;29;20556;-83
2021/07/24 02:01:28;;;;;;;9.23;7.90;;;;;;;20.67;63.65;94866.47;4898527;29;20437;-83
2021/07/24 02:03:58;;;;;;;8.67;7.93;;;;;;;20.67;64.19;94865.66;4898422;29;20976;-83
2021/07/24 02:06:25;;;;;;;8.13;7.33;;;;;;;20.68;63.33;94860.13;4898561;29;20445;-83
2021/07/24 02:08:53;;;;;;;10.30;7.30;;;;;;;20.59;63.48;94865.78;4898653;29;20512;-83
2021/07/24 02:11:21;;;;;;;10.60;7.87;;;;;;;20.52;63.56;94862.22;4898422;29;20528;-83
2021/07/24 02:13:49;;;;;;;8.87;7.97;;;;;;;20.49;63.84;94865.28;4898750;29;20534;-83
2021/07/24 02:16:17;;;;;;;9.13;7.70;;;;;;;20.48;64.24;94874.28;4898312;29;20453;-83
2021/07/24 02:18:45;;;;;;;9.00;7.50;;;;;;;20.44;63.68;94870.34;4898419;29;20435;-83
2021/07/24 02:21:13;;;;;;;8.03;7.23;;;;;;;20.37;64.25;94868.44;4898359;29;20811;-83
2021/07/24 02:23:40;;;;;;;10.57;7.90;;;;;;;20.36;64.20;94869.44;4898368;29;20429;-83
2021/07/24 02:34:01;;;;;;;12.00;8.07;;;;;;;20.34;64.59;94874.16;4876618;29;20509;-83
2021/07/24 02:36:29;;;;;;;10.30;8.20;;;;;;;20.33;64.48;94863.69;4879702;29;20517;-83
2021/07/24 02:38:56;;;;;;;7.87;7.17;;;;;;;20.34;64.44;94873.31;4847125;29;20460;-83
2021/07/24 02:41:23;;;;;;;9.40;7.50;;;;;;;20.23;64.48;94866.63;4879467;29;20441;-83
2021/07/24 02:43:50;;;;;;;9.50;8.43;;;;;;;20.26;64.93;94873.44;4847127;29;20460;-83
2021/07/24 02:46:19;;;;;;;8.37;7.47;;;;;;;20.29;65.09;94873.06;4879331;29;20474;-83
2021/07/24 02:58:53;;;;;;;10.27;8.60;;;;;;;20.16;65.27;94889.72;4883487;29;20465;-83
2021/07/24 03:01:20;;;;;;;8.73;7.73;;;;;;;20.17;65.24;94887.88;4883221;29;20919;-83
2021/07/24 03:03:47;;;;;;;8.43;7.70;;;;;;;20.22;65.68;94888.97;4883069;29;20527;-83
2021/07/24 03:06:14;;;;;;;9.23;8.33;;;;;;;20.26;65.76;94884.94;4883241;29;20484;-84
2021/07/24 03:15:25;;;;;;;11.53;7.53;;;;;;;20.21;65.74;94897.97;4882199;29;20459;-83
2021/07/24 03:17:52;;;;;;;10.57;8.40;;;;;;;20.14;65.54;94894.41;4882871;29;20452;-83
2021/07/24 03:20:19;;;;;;;10.10;8.13;;;;;;;20.11;65.55;94889.47;4882815;29;20810;-83
2021/07/24 03:22:46;;;;;;;11.50;8.30;;;;;;;20.00;65.98;94890.81;4850423;29;20536;-83
2021/07/24 03:25:13;;;;;;;10.20;8.10;;;;;;;19.99;65.96;94888.34;4882565;29;21099;-83
2021/07/24 03:27:40;;;;;;;12.23;8.50;;;;;;;19.93;66.15;94891.72;4882602;29;20458;-83
2021/07/24 03:30:09;;;;;;;9.57;8.43;;;;;;;19.99;66.07;94894.47;4882903;29;20458;-84
2021/07/24 03:32:37;;;;;;;8.87;7.33;;;;;;;19.97;66.35;94898.34;4882525;29;20453;-84
2021/07/24 03:35:05;;;;;;;8.83;7.80;;;;;;;20.00;65.89;94900.63;4893877;29;20483;-83
2021/07/24 03:37:32;;;;;;;9.30;8.40;;;;;;;20.00;65.83;94889.97;4901069;29;20455;-83
2021/07/24 03:39:59;;;;;;;9.73;8.20;;;;;;;20.13;65.81;94894.63;4901117;29;20463;-83
2021/07/24 03:42:26;;;;;;;9.00;8.10;;;;;;;20.18;65.55;94908.19;4901060;29;20455;-83
2021/07/24 03:44:53;;;;;;;7.73;7.03;;;;;;;20.20;65.29;94906.97;4900972;29;20607;-83
2021/07/24 03:47:20;;;;;;;8.10;7.40;;;;;;;20.20;64.77;94900.84;4853280;29;20452;-84
2021/07/24 03:53:16;;;;;;;9.87;8.47;;;;;;;20.17;65.48;94902.03;4901064;29;20404;-84
2021/07/24 03:55:44;;;;;;;8.10;7.17;;;;;;;20.26;65.51;94903.59;4901103;29;20431;-84
2021/07/24 03:58:11;;;;;;;10.40;7.90;;;;;;;20.35;64.76;94904.28;4900447;29;20552;-83
2021/07/24 04:00:41;;;;;;;12.47;7.93;;;;;;;20.51;65.17;94905.88;4900250;29;20857;-83
2021/07/24 04:03:08;;;;;;;13.43;7.30;;;;;;;20.76;64.41;94906.31;4900979;29;21026;-83
2021/07/24 04:05:40;;;;;;;9.17;8.17;;;;;;;21.15;63.18;94903.16;4900610;29;20511;-84
2021/07/24 04:08:07;;;;;;;8.93;7.50;;;;;;;21.53;61.96;94909.81;4868221;29;20445;-84
2021/07/24 04:10:37;;;;;;;8.87;7.47;;;;;;;22.00;60.41;94921.56;4901077;29;20465;-83
2021/07/24 04:13:04;;;;;;;8.53;7.60;;;;;;;22.41;59.22;94920.66;4901089;29;20460;-84
2021/07/24 04:15:32;;;;;;;13.53;8.30;;;;;;;22.77;57.99;94918.47;4900862;29;20441;-84
2021/07/24 04:17:59;;;;;;;8.20;7.37;;;;;;;23.01;56.91;94929.63;4900497;29;20438;-83
2021/07/24 04:20:27;;;;;;;8.40;7.53;;;;;;;23.26;55.95;94925.31;4900916;29;20470;-84
2021/07/24 04:22:54;;;;;;;11.80;7.87;;;;;;;23.52;54.91;94926.31;4900465;29;20461;-84
2021/07/24 04:25:21;;;;;;;7.87;7.07;;;;;;;23.72;54.55;94924.44;4900226;29;20546;-83
2021/07/24 04:27:49;;;;;;;7.90;7.20;;;;;;;23.92;53.72;94927.88;4900293;29;20457;-84
2021/07/24 04:30:16;;;;;;;8.33;7.53;;;;;;;24.18;52.90;94929.63;4900621;29;20454;-84
2021/07/24 04:32:43;;;;;;;12.40;8.20;;;;;;;24.42;52.23;94927.28;4852611;29;20535;-83
2021/07/24 04:35:10;;;;;;;9.70;8.10;;;;;;;24.60;52.08;94930.91;4899990;29;20521;-83
2021/07/24 04:37:37;;;;;;;8.47;7.67;;;;;;;24.79;51.41;94922.94;4900115;29;20452;-83
2021/07/24 04:40:05;;;;;;;9.47;8.47;;;;;;;24.94;50.97;94916.22;4900410;29;20447;-83
2021/07/24 04:42:33;;;;;;;9.43;7.33;;;;;;;25.13;50.32;94925.19;4900462;29;20433;-83
2021/07/24 04:45:01;;;;;;;7.90;6.80;;;;;;;25.30;50.29;94931.66;4899831;29;20568;-83
2021/07/24 04:47:40;;;;;;;8.37;7.57;;;;;;;25.53;50.25;94924.84;4899937;29;20437;-83
2021/07/24 04:50:08;;;;;;;10.50;6.80;;;;;;;25.70;50.01;94927.78;4899885;29;21303;-84
2021/07/24 04:52:36;;;;;;;8.73;7.47;;;;;;;25.84;49.51;94938.19;4899911;29;20543;-84
2021/07/24 04:55:03;;;;;;;8.43;7.33;;;;;;;26.08;49.26;94932.97;4900035;29;20475;-83
2021/07/24 04:57:32;;;;;;;10.97;8.73;;;;;;;26.23;48.94;94936.09;4900433;29;20530;-83
2021/07/24 05:00:01;;;;;;;8.63;7.83;;;;;;;26.40;48.49;94929.09;4900144;29;20571;-83
2021/07/24 05:02:28;;;;;;;8.73;8.03;;;;;;;26.55;48.96;94934.03;4852509;29;20453;-83
2021/07/24 05:04:55;;;;;;;8.07;7.27;;;;;;;26.75;48.42;94931.09;4851818;29;20461;-83
2021/07/24 05:07:22;;;;;;;11.63;8.37;;;;;;;26.84;47.94;94933.22;4900243;29;20820;-83
2021/07/24 05:09:49;;;;;;;8.67;7.87;;;;;;;27.05;47.00;94936.47;4851464;29;20820;-83
2021/07/24 05:12:16;;;;;;;8.03;7.33;;;;;;;27.32;47.46;94939.56;4851626;29;20524;-83
2021/07/24 05:14:43;;;;;;;8.33;7.40;;;;;;;27.58;46.95;94938.31;4899767;29;20457;-83
2021/07/24 05:17:12;;;;;;;9.90;7.47;;;;;;;27.33;46.51;94936.63;4899487;29;20910;-83
2021/07/24 05:19:40;;;;;;;8.20;7.30;;;;;;;27.51;46.24;94935.72;4899255;29;20819;-83
2021/07/24 05:22:14;;;;;;;7.93;7.20;;;;;;;26.87;47.17;94940.00;4899722;29;20532;-83
2021/07/24 05:24:45;;;;;;;12.80;7.33;;;;;;;26.96;48.29;94935.97;4899800;29;20441;-84
2021/07/24 05:27:13;;;;;;;10.30;8.40;;;;;;;27.23;48.17;94932.88;4899240;29;20509;-83
2021/07/24 05:29:40;;;;;;;9.40;6.93;;;;;;;27.55;47.95;94934.19;4899819;29;20448;-83
2021/07/24 05:32:08;;;;;;;9.50;7.47;;;;;;;27.86;45.75;94934.91;4899379;29;20784;-83
2021/07/24 05:34:36;;;;;;;9.83;7.20;;;;;;;28.10;45.92;94930.31;4899289;29;20559;-83
2021/07/24 05:37:03;;;;;;;9.10;7.40;;;;;;;28.26;44.90;94938.50;4899314;29;20453;-83
2021/07/24 05:39:30;;;;;;;8.77;7.10;;;;;;;28.50;44.28;94925.75;4899264;29;20558;-83
2021/07/24 05:41:57;;;;;;;7.87;7.07;;;;;;;28.71;44.00;94934.25;4899195;29;20437;-83
2021/07/24 05:44:24;;;;;;;10.47;8.00;;;;;;;28.84;43.49;94933.94;4898954;29;20456;-83
2021/07/24 05:46:51;;;;;;;8.07;7.23;;;;;;;29.03;42.87;94929.19;4898764;29;20497;-84
2021/07/24 05:49:18;;;;;;;8.77;7.83;;;;;;;29.15;42.60;94929.94;4898871;29;20460;-83
2021/07/24 05:51:46;;;;;;;12.80;7.27;;;;;;;29.33;41.68;94935.13;4850991;29;20540;-83
2021/07/24 05:54:14;;;;;;;9.83;8.03;;;;;;;29.33;40.24;94931.59;4899404;29;20440;-83
2021/07/24 05:56:41;;;;;;;7.10;6.40;;;;;;;29.17;41.03;94933.22;4866047;29;21211;-83
2021/07/24 05:59:08;;;;;;;7.70;6.83;;;;;;;29.29;40.72;94925.88;4899249;29;20488;-83
2021/07/24 06:01:36;;;;;;;10.23;6.37;;;;;;;29.38;40.93;94932.50;4898597;29;20929;-83
2021/07/24 06:04:03;;;;;;;8.07;6.17;;;;;;;29.57;39.61;94925.81;4898897;29;20461;-83
2021/07/24 06:06:30;;;;;;;7.70;6.27;;;;;;;29.64;39.85;94935.63;4898533;29;20544;-83
2021/07/24 06:08:59;;;;;;;9.23;6.53;;;;;;;29.63;38.87;94928.59;4899054;29;20433;-83
2021/07/24 06:11:25;;;;;;;6.47;5.80;;;;;;;29.56;40.07;94932.28;4898534;29;20450;-83
2021/07/24 06:13:52;;;;;;;10.90;6.53;;;;;;;29.71;39.50;94934.38;4865814;29;20451;-83
2021/07/24 06:16:19;;;;;;;7.60;6.63;;;;;;;29.95;39.63;94932.28;4898348;29;20453;-83
2021/07/24 06:18:46;;;;;;;9.63;6.17;;;;;;;30.07;38.65;94943.88;4898357;29;21329;-82
2021/07/24 06:21:17;;;;;;;10.80;6.97;;;;;;;29.89;39.35;94944.94;4898307;29;20618;-83
2021/07/24 06:23:44;;;;;;;8.83;6.97;;;;;;;29.36;39.50;94948.16;4898028;29;20989;-83
2021/07/24 06:26:12;;;;;;;7.93;7.13;;;;;;;28.96;40.99;94948.28;4898525;29;20477;-83
2021/07/24 06:28:39;;;;;;;8.40;7.60;;;;;;;28.95;41.89;94947.47;4898739;29;20797;-83
2021/07/24 06:31:06;;;;;;;12.20;7.60;;;;;;;28.01;43.90;94954.13;4898221;29;20443;-83
2021/07/24 06:33:33;;;;;;;7.93;6.57;;;;;;;27.90;43.69;94950.41;4898169;29;21009;-83
2021/07/24 06:36:01;;;;;;;9.00;8.20;;;;;;;28.15;44.67;94942.03;4898783;29;20477;-83
2021/07/24 06:38:28;;;;;;;9.83;8.57;;;;;;;28.19;43.79;94942.38;4898120;29;20872;-83
2021/07/24 06:40:55;;;;;;;12.00;8.50;;;;;;;28.03;44.50;94944.72;4898163;29;20467;-83
2021/07/24 06:43:24;;;;;;;16.00;10.07;;;;;;;27.92;45.58;94947.47;4898219;29;20516;-83
2021/07/24 06:45:51;;;;;;;19.50;9.93;;;;;;;28.13;45.38;94933.34;4898449;29;20480;-83
2021/07/24 06:48:21;;;;;;;12.43;10.27;;;;;;;28.18;45.76;94925.38;4898369;29;20456;-83
2021/07/24 06:50:48;;;;;;;11.03;10.00;;;;;;;28.49;43.96;94934.94;4850164;29;20532;-83
2021/07/24 06:53:15;;;;;;;10.50;9.07;;;;;;;28.72;44.54;94933.19;4898050;29;21012;-83
2021/07/24 06:55:42;;;;;;;11.33;8.77;;;;;;;28.37;43.78;94931.47;4898182;29;20532;-83
2021/07/24 06:58:09;;;;;;;12.60;9.90;;;;;;;28.46;43.93;94924.59;4897954;29;20936;-83
2021/07/24 07:00:37;;;;;;;11.20;8.20;;;;;;;28.78;43.82;94919.53;4897994;29;20452;-83
2021/07/24 07:03:04;;;;;;;10.20;9.20;;;;;;;28.62;42.24;94923.00;4898299;29;20525;-83
2021/07/24 07:05:32;;;;;;;9.40;8.40;;;;;;;28.45;42.49;94927.56;4897921;29;20449;-83
2021/07/24 07:07:59;;;;;;;9.80;8.80;;;;;;;28.45;42.17;94919.44;4898089;29;20444;-83
2021/07/24 07:10:26;;;;;;;12.23;9.60;;;;;;;28.32;42.80;94917.84;4897896;29;20488;-84
2021/07/24 07:12:53;;;;;;;9.43;8.53;;;;;;;28.42;43.84;94920.75;4897724;29;20452;-83
2021/07/24 07:15:20;;;;;;;11.17;8.40;;;;;;;28.24;43.30;94927.13;4898123;29;20449;-83
2021/07/24 07:17:48;;;;;;;10.13;8.40;;;;;;;27.94;44.43;94921.06;4898167;29;20918;-83
2021/07/24 07:20:15;;;;;;;10.40;8.83;;;;;;;28.08;44.41;94925.16;4897947;29;20467;-83
2021/07/24 07:22:42;;;;;;;10.10;7.87;;;;;;;28.12;45.75;94917.41;4898023;29;20934;-83
2021/07/24 07:25:10;;;;;;;13.43;9.17;;;;;;;28.28;44.10;94919.38;4897826;29;20433;-83
2021/07/24 07:27:41;;;;;;;8.40;7.60;;;;;;;28.52;43.34;94922.81;4897695;29;20565;-84
2021/07/24 07:30:09;;;;;;;10.57;8.10;;;;;;;28.68;43.76;94919.38;4897631;29;20941;-84
2021/07/24 07:32:36;;;;;;;12.70;7.23;;;;;;;28.48;41.88;94919.78;4849115;29;20456;-84
2021/07/24 07:35:05;;;;;;;8.27;7.47;;;;;;;28.53;41.89;94919.06;4901061;29;20567;-83
2021/07/24 07:37:32;;;;;;;7.83;7.13;;;;;;;28.58;42.00;94916.44;4901471;29;20528;-83
2021/07/24 07:39:59;;;;;;;10.40;7.10;;;;;;;28.89;42.78;94923.25;4900997;29;20449;-83
2021/07/24 07:42:26;;;;;;;11.20;6.87;;;;;;;29.15;42.13;94917.25;4901809;29;20448;-83
2021/07/24 07:44:53;;;;;;;10.20;7.40;;;;;;;29.26;41.68;94918.25;4901177;29;20925;-83
2021/07/24 07:47:20;;;;;;;12.57;7.80;;;;;;;29.18;40.63;94910.53;4901272;29;20483;-84
2021/07/24 07:59:54;;;;;;;8.57;7.50;;;;;;;29.20;41.18;94905.69;4900301;29;20500;-83
2021/07/24 08:02:21;;;;;;;7.53;6.67;;;;;;;28.48;42.53;94914.38;4900875;29;20445;-84
2021/07/24 08:04:49;;;;;;;8.90;7.20;;;;;;;28.78;44.31;94913.31;4868195;29;20445;-84
2021/07/24 08:07:16;;;;;;;12.87;8.43;;;;;;;29.04;43.21;94909.22;4901215;29;20484;-82
2021/07/24 08:09:43;;;;;;;8.83;6.97;;;;;;;29.29;42.94;94915.06;4900996;29;20504;-83
2021/07/24 08:12:10;;;;;;;12.70;6.63;;;;;;;29.49;41.95;94911.84;4852852;29;20459;-83
2021/07/24 08:14:37;;;;;;;9.50;7.07;;;;;;;29.67;41.27;94910.78;4900553;29;20445;-82
2021/07/24 08:17:09;;;;;;;9.80;6.87;;;;;;;29.77;41.16;94908.22;4900638;29;20452;-82
2021/07/24 08:19:37;;;;;;;7.03;6.33;;;;;;;29.87;40.96;94909.19;4900735;29;20445;-83
2021/07/24 08:22:04;;;;;;;7.33;6.77;;;;;;;29.72;41.36;94900.03;4900340;29;20447;-83
2021/07/24 08:24:31;;;;;;;7.37;6.23;;;;;;;29.32;40.14;94900.22;4900653;29;20447;-83
2021/07/24 08:26:58;;;;;;;9.67;7.03;;;;;;;28.95;41.00;94906.94;4900554;29;20489;-83
2021/07/24 08:29:25;;;;;;;7.30;6.50;;;;;;;29.23;42.46;94900.63;4900332;29;20447;-83
2021/07/24 08:31:52;;;;;;;8.60;7.17;;;;;;;29.49;41.45;94903.75;4900217;29;20437;-83
2021/07/24 08:34:20;;;;;;;7.43;6.50;;;;;;;29.75;40.68;94900.34;4900522;29;20498;-83
2021/07/24 08:36:47;;;;;;;12.43;7.57;;;;;;;29.70;40.00;94894.88;4900134;29;20925;-83
2021/07/24 08:39:14;;;;;;;8.20;7.40;;;;;;;29.95;39.82;94891.69;4900145;29;20451;-82
2021/07/24 08:41:42;;;;;;;6.97;6.27;;;;;;;30.14;37.82;94893.06;4900598;29;20524;-83
2021/07/24 08:44:11;;;;;;;7.23;6.37;;;;;;;29.89;38.03;94890.00;4900185;29;20964;-82
2021/07/24 08:46:38;;;;;;;6.67;5.93;;;;;;;29.91;38.23;94896.00;4899403;29;20844;-82
2021/07/24 08:49:05;;;;;;;7.50;6.80;;;;;;;29.84;38.00;94898.88;4900224;29;20798;-83
2021/07/24 08:51:37;;;;;;;7.50;6.90;;;;;;;29.96;38.44;94892.53;4899869;29;20937;-83
2021/07/24 08:54:05;;;;;;;7.13;6.53;;;;;;;30.19;36.92;94892.31;4899725;29;20532;-83
2021/07/24 08:56:36;;;;;;;6.70;6.10;;;;;;;30.33;36.75;94895.44;4899959;29;20441;-82
2021/07/24 08:59:04;;;;;;;8.13;7.07;;;;;;;30.66;36.70;94895.34;4900136;29;20456;-83
2021/07/24 09:01:34;;;;;;;10.57;6.80;;;;;;;30.76;34.92;94900.03;4899673;29;20449;-84
2021/07/24 09:04:05;;;;;;;6.73;6.20;;;;;;;30.19;36.23;94895.03;4899538;29;20448;-83
2021/07/24 09:06:33;;;;;;;7.73;6.97;;;;;;;29.80;37.01;94896.94;4900082;29;20483;-83
2021/07/24 09:09:06;;;;;;;5.83;5.33;;;;;;;29.34;37.56;94893.50;4899579;29;20548;-83
2021/07/24 09:11:33;;;;;;;6.60;6.00;;;;;;;29.65;37.99;94899.41;4899846;29;20441;-82
2021/07/24 09:14:00;;;;;;;13.60;6.87;;;;;;;29.57;37.45;94900.66;4851448;29;20445;-82
2021/07/24 09:16:28;;;;;;;6.20;5.60;;;;;;;29.32;37.66;94897.53;4899396;29;20448;-81
2021/07/24 09:18:59;;;;;;;10.00;6.53;;;;;;;29.34;38.07;94898.91;4899811;29;20966;-83
2021/07/24 09:21:27;;;;;;;9.23;7.17;;;;;;;29.22;38.02;94895.47;4899376;29;20437;-83
2021/07/24 09:23:55;;;;;;;8.87;7.03;;;;;;;28.97;40.67;94899.41;4852031;29;20918;-83
2021/07/24 09:26:33;;;;;;;6.77;6.27;;;;;;;28.54;41.36;94910.72;4899153;29;20488;-83
2021/07/24 09:29:12;;;;;;;10.23;7.40;;;;;;;27.76;42.48;94906.69;4899194;29;20441;-82
2021/07/24 09:31:40;;;;;;;8.73;7.00;;;;;;;27.43;43.12;94914.50;4899205;29;20444;-83
2021/07/24 09:34:07;;;;;;;8.47;6.87;;;;;;;27.21;44.97;94910.75;4899628;29;20481;-83
2021/07/24 09:36:35;;;;;;;10.10;7.00;;;;;;;26.57;47.35;94914.97;4899197;29;20448;-83
2021/07/24 09:39:10;;;;;;;14.57;6.60;;;;;;;26.09;48.68;94910.41;4899591;29;20798;-83
2021/07/24 09:41:38;;;;;;;14.67;6.53;;;;;;;25.88;49.88;94904.44;4899206;29;20452;-82
2021/07/24 09:44:05;;;;;;;8.93;7.03;;;;;;;25.66;51.63;94913.94;4898968;29;20809;-83
2021/07/24 09:46:32;;;;;;;10.83;6.27;;;;;;;25.32;51.75;94916.13;4851171;29;20992;-82
2021/07/24 09:49:12;;;;;;;15.23;7.07;;;;;;;25.13;53.01;94918.97;4899501;29;20828;-83
2021/07/24 09:51:41;;;;;;;7.93;6.93;;;;;;;24.93;53.32;94909.22;4899132;29;20447;-83
2021/07/24 09:54:25;;;;;;;7.70;6.90;;;;;;;24.75;53.80;94911.81;4898800;29;20439;-83
2021/07/24 09:56:52;;;;;;;8.50;7.70;;;;;;;24.58;56.47;94933.00;4898726;29;20442;-83
2021/07/24 09:59:20;;;;;;;12.70;7.77;;;;;;;24.20;58.54;94935.59;4899044;29;20477;-83
2021/07/24 10:01:54;;;;;;;9.87;7.60;;;;;;;23.59;60.91;94940.53;4898651;29;20442;-82
2021/07/24 10:04:28;;;;;;;11.23;8.57;;;;;;;23.54;63.22;94940.31;4898985;29;20429;-83
2021/07/24 10:06:58;;;;;;;8.83;7.63;;;;;;;23.58;65.73;94950.44;4898542;29;20499;-84
2021/07/24 10:09:29;;;;;;;9.03;8.13;;;;;;;23.60;65.12;94948.38;4898856;29;20444;-82
2021/07/24 10:11:57;;;;;;;12.87;7.90;;;;;;;23.75;67.33;94956.19;4898553;29;20453;-82
2021/07/24 10:14:24;;;;;;;11.93;9.23;;;;;;;23.85;65.57;94961.91;4898809;29;20807;-83
2021/07/24 10:16:53;;;;;;;12.70;9.37;;;;;;;23.94;65.56;94955.28;4898498;29;20819;-83
2021/07/24 10:19:40;;;;;;;9.70;8.77;;;;;;;24.07;65.45;94957.94;4898733;29;21019;-83
2021/07/24 10:22:07;;;;;;;8.50;7.60;;;;;;;23.83;62.52;94955.94;4840716;29;20464;-82
2021/07/24 10:24:36;;;;;;;8.90;7.30;;;;;;;23.78;61.48;94953.09;4840744;29;20457;-83
2021/07/24 10:27:06;;;;;;;6.77;6.17;;;;;;;23.48;61.13;94953.50;4840684;29;20493;-83
2021/07/24 10:29:36;;;;;;;7.87;7.13;;;;;;;23.53;62.29;94946.72;4840770;29;20447;-83
2021/07/24 10:39:06;;;;;;;6.97;6.30;;;;;;;23.68;62.31;94939.28;4822659;29;20797;-82
2021/07/24 10:41:39;;;;;;;8.50;7.70;;;;;;;23.85;60.73;94943.16;4822499;29;20456;-83
2021/07/24 10:44:07;;;;;;;11.60;7.23;;;;;;;24.06;59.29;94934.84;4807588;29;20442;-83
2021/07/24 10:47:22;;;;;;;7.47;6.73;;;;;;;24.27;60.32;94947.13;4822626;29;20851;-83
2021/07/24 10:50:03;;;;;;;15.47;7.23;;;;;;;24.40;57.19;94954.31;4822295;29;20446;-83
2021/07/24 10:53:12;;;;;;;6.57;5.93;;;;;;;24.47;58.36;94967.72;4822263;29;21398;-83
2021/07/24 10:59:20;;;;;;;6.77;6.27;;;;;;;24.89;56.89;94959.00;4797459;29;20449;-83
2021/07/24 11:01:49;;;;;;;7.40;6.60;;;;;;;25.21;56.29;94967.91;4840462;29;20451;-83
2021/07/24 11:04:46;;;;;;;7.60;6.90;;;;;;;25.46;54.70;94964.41;4840287;29;20455;-83
2021/07/24 11:07:43;;;;;;;10.33;7.70;;;;;;;25.74;54.37;94964.78;4840567;29;20494;-83
2021/07/24 11:10:10;;;;;;;7.30;6.20;;;;;;;25.72;54.20;94957.97;4798562;29;20827;-84
2021/07/24 11:12:38;;;;;;;7.60;6.90;;;;;;;25.53;51.16;94965.97;4844074;29;20840;-83
2021/07/24 11:15:07;;;;;;;7.40;6.80;;;;;;;25.41;49.73;94965.03;4843885;29;20457;-83
2021/07/24 11:17:35;;;;;;;7.80;6.40;;;;;;;25.52;47.29;94960.81;4844044;29;20444;-83
2021/07/24 11:20:35;;;;;;;7.87;6.60;;;;;;;25.60;47.79;94947.91;4844167;29;20453;-83
2021/07/24 11:23:06;;;;;;;6.80;6.30;;;;;;;25.72;45.71;94945.34;4844202;29;20474;-83
2021/07/24 11:25:38;;;;;;;6.63;6.00;;;;;;;25.89;46.45;94942.91;4843771;29;20455;-82
2021/07/24 11:28:06;;;;;;;8.10;6.50;;;;;;;26.12;46.67;94945.75;4843830;29;21041;-83
2021/07/24 11:37:17;;;;;;;7.40;6.70;;;;;;;26.31;45.75;94925.03;4876843;29;20524;-83
2021/07/24 11:39:44;;;;;;;6.63;6.03;;;;;;;26.16;40.42;94924.59;4901200;29;20468;-83
2021/07/24 11:42:21;;;;;;;7.83;6.20;;;;;;;26.06;42.62;94918.94;4901591;29;20444;-83
2021/07/24 11:44:50;;;;;;;8.40;7.60;;;;;;;26.05;44.71;94920.81;4901671;29;20450;-83
2021/07/24 11:47:17;;;;;;;6.87;6.30;;;;;;;26.15;45.01;94920.25;4901035;29;20476;-83
2021/07/24 11:49:44;;;;;;;8.60;5.80;;;;;;;26.27;44.56;94915.75;4900992;29;20437;-83
2021/07/24 11:52:12;;;;;;;6.67;5.93;;;;;;;26.34;42.99;94916.53;4900963;29;20465;-83
2021/07/24 11:54:40;;;;;;;6.90;6.30;;;;;;;26.46;44.42;94924.66;4900905;29;20534;-82
2021/07/24 11:57:07;;;;;;;7.17;6.47;;;;;;;26.44;43.61;94916.81;4901131;29;20441;-83
2021/07/24 11:59:35;;;;;;;7.83;6.63;;;;;;;26.40;44.41;94921.00;4901403;29;20457;-83
2021/07/24 12:02:03;;;;;;;7.40;6.70;;;;;;;26.21;42.76;94911.28;4901087;29;20440;-83
2021/07/24 12:04:30;;;;;;;7.33;6.73;;;;;;;26.28;44.77;94911.19;4900846;29;20433;-83
2021/07/24 12:06:59;;;;;;;7.90;7.20;;;;;;;26.32;45.47;94913.22;4868019;29;20445;-82
2021/07/24 12:09:27;;;;;;;7.43;6.70;;;;;;;26.35;44.67;94904.72;4900893;29;20536;-83
2021/07/24 12:11:58;;;;;;;6.67;5.70;;;;;;;26.49;46.23;94908.88;4901050;29;20449;-82
2021/07/24 12:14:26;;;;;;;7.33;6.63;;;;;;;26.59;44.76;94910.19;4900790;29;20447;-83
2021/07/24 12:17:07;;;;;;;7.20;6.60;;;;;;;26.69;46.77;94905.91;4900679;29;20461;-83
2021/07/24 12:22:56;;;;;;;7.17;6.53;;;;;;;26.83;42.82;94893.88;4899746;29;20854;-83
2021/07/24 12:25:25;;;;;;;7.27;6.60;;;;;;;26.79;41.98;94892.69;4900740;29;20446;-84
2021/07/24 12:27:54;;;;;;;7.20;6.50;;;;;;;26.82;43.52;94886.03;4900486;29;20483;-83
2021/07/24 12:30:27;;;;;;;6.50;5.83;;;;;;;26.70;43.30;94880.63;4900840;29;20459;-84
2021/07/24 12:32:54;;;;;;;8.80;6.40;;;;;;;26.66;41.82;94882.13;4900480;29;20441;-83
2021/07/24 12:35:21;;;;;;;6.03;5.43;;;;;;;26.72;42.60;94886.59;4900645;29;20898;-84
2021/07/24 12:37:49;;;;;;;6.60;6.10;;;;;;;26.72;42.99;94880.41;4900719;29;20481;-83
2021/07/24 12:40:17;;;;;;;7.03;6.30;;;;;;;26.80;42.80;94877.38;4900404;29;20468;-83
2021/07/24 12:42:44;;;;;;;7.27;6.57;;;;;;;26.84;42.08;94883.91;4900775;29;20447;-84
2021/07/24 12:45:25;;;;;;;7.10;6.60;;;;;;;27.00;43.67;94880.59;4900358;29;20464;-83
2021/07/24 12:47:53;;;;;;;6.63;6.00;;;;;;;27.19;41.55;94880.53;4899233;29;20540;-84